sensor_id;sensor_type;location;lat;lon;timestamp;pressure;altitude;pressure_sealevel;temperature;humidity
11912;BME280;6016;41.928;25.556;2023-03-04T00:01:15;99238.31;;;6.11;79.30
11912;BME280;6016;41.928;25.556;2023-03-04T00:03:42;99240.94;;;6.11;79.89
11912;BME280;6016;41.928;25.556;2023-03-04T00:06:09;99236.09;;;6.18;79.49
11912;BME280;6016;41.928;25.556;2023-03-04T00:08:36;99224.56;;;6.21;80.43
11912;BME280;6016;41.928;25.556;2023-03-04T00:11:03;99221.63;;;6.25;79.23
11912;BME280;6016;41.928;25.556;2023-03-04T00:13:31;99195.19;;;6.04;79.75
11912;BME280;6016;41.928;25.556;2023-03-04T00:15:58;99171.72;;;5.89;79.59
11912;BME280;6016;41.928;25.556;2023-03-04T00:18:25;99187.31;;;5.91;79.04
11912;BME280;6016;41.928;25.556;2023-03-04T00:20:52;99227.28;;;6.19;80.61
11912;BME280;6016;41.928;25.556;2023-03-04T00:23:18;99217.88;;;6.16;80.03
11912;BME280;6016;41.928;25.556;2023-03-04T00:25:45;99223.00;;;6.18;80.30
11912;BME280;6016;41.928;25.556;2023-03-04T00:28:12;99156.03;;;5.76;80.87
11912;BME280;6016;41.928;25.556;2023-03-04T00:30:40;99234.25;;;5.94;83.65
11912;BME280;6016;41.928;25.556;2023-03-04T00:33:07;99231.41;;;6.10;85.35
11912;BME280;6016;41.928;25.556;2023-03-04T00:35:34;99188.69;;;5.84;84.98
11912;BME280;6016;41.928;25.556;2023-03-04T00:38:00;99241.78;;;6.12;83.66
11912;BME280;6016;41.928;25.556;2023-03-04T00:40:27;99236.84;;;6.07;82.50
11912;BME280;6016;41.928;25.556;2023-03-04T00:42:54;99233.50;;;6.05;83.61
11912;BME280;6016;41.928;25.556;2023-03-04T00:45:21;99244.69;;;6.20;84.49
11912;BME280;6016;41.928;25.556;2023-03-04T00:47:49;99242.13;;;6.31;84.09
11912;BME280;6016;41.928;25.556;2023-03-04T00:50:16;99237.25;;;6.27;83.69
11912;BME280;6016;41.928;25.556;2023-03-04T00:52:43;99243.06;;;6.43;83.52
11912;BME280;6016;41.928;25.556;2023-03-04T00:55:10;99187.81;;;6.22;81.88
11912;BME280;6016;41.928;25.556;2023-03-04T00:57:37;99239.34;;;6.59;81.85
11912;BME280;6016;41.928;25.556;2023-03-04T01:00:05;99227.75;;;6.37;80.87
11912;BME280;6016;41.928;25.556;2023-03-04T01:02:31;99239.19;;;6.36;79.96
11912;BME280;6016;41.928;25.556;2023-03-04T01:05:00;99237.13;;;6.28;80.02
11912;BME280;6016;41.928;25.556;2023-03-04T01:07:26;99235.81;;;6.10;80.90
11912;BME280;6016;41.928;25.556;2023-03-04T01:09:53;99236.94;;;6.05;80.74
11912;BME280;6016;41.928;25.556;2023-03-04T01:12:20;99235.41;;;6.03;81.42
11912;BME280;6016;41.928;25.556;2023-03-04T01:14:47;99236.22;;;6.03;82.46
11912;BME280;6016;41.928;25.556;2023-03-04T01:17:13;99237.47;;;5.98;82.30
11912;BME280;6016;41.928;25.556;2023-03-04T01:19:40;99233.91;;;5.99;82.24
11912;BME280;6016;41.928;25.556;2023-03-04T01:22:10;99225.53;;;5.81;82.51
11912;BME280;6016;41.928;25.556;2023-03-04T01:24:38;99207.63;;;5.87;81.96
11912;BME280;6016;41.928;25.556;2023-03-04T01:27:05;99219.56;;;6.04;81.52
11912;BME280;6016;41.928;25.556;2023-03-04T01:29:32;99217.03;;;6.16;82.27
11912;BME280;6016;41.928;25.556;2023-03-04T01:31:59;99212.03;;;6.13;81.95
11912;BME280;6016;41.928;25.556;2023-03-04T01:34:25;99220.28;;;6.19;80.57
11912;BME280;6016;41.928;25.556;2023-03-04T01:36:52;99173.41;;;5.90;80.90
11912;BME280;6016;41.928;25.556;2023-03-04T01:39:20;99235.91;;;6.21;79.76
11912;BME280;6016;41.928;25.556;2023-03-04T01:41:47;99127.69;;;5.57;79.62
11912;BME280;6016;41.928;25.556;2023-03-04T01:44:14;99210.75;;;6.18;80.77
11912;BME280;6016;41.928;25.556;2023-03-04T01:46:45;99207.91;;;6.22;79.75
11912;BME280;6016;41.928;25.556;2023-03-04T01:49:13;99200.59;;;6.14;80.81
11912;BME280;6016;41.928;25.556;2023-03-04T01:51:42;99203.84;;;6.17;80.02
11912;BME280;6016;41.928;25.556;2023-03-04T01:54:09;99201.94;;;6.19;79.70
11912;BME280;6016;41.928;25.556;2023-03-04T01:56:39;99211.78;;;6.16;80.25
11912;BME280;6016;41.928;25.556;2023-03-04T01:59:11;99203.31;;;6.12;80.26
11912;BME280;6016;41.928;25.556;2023-03-04T02:01:38;99181.03;;;5.81;81.26
11912;BME280;6016;41.928;25.556;2023-03-04T02:04:06;99215.69;;;6.10;81.14
11912;BME280;6016;41.928;25.556;2023-03-04T02:06:34;99212.88;;;6.13;81.70
11912;BME280;6016;41.928;25.556;2023-03-04T02:09:02;99205.13;;;6.12;80.04
11912;BME280;6016;41.928;25.556;2023-03-04T02:11:29;99209.50;;;6.11;80.38
11912;BME280;6016;41.928;25.556;2023-03-04T02:13:58;99171.41;;;5.81;79.99
11912;BME280;6016;41.928;25.556;2023-03-04T02:16:25;99212.25;;;6.10;79.66
11912;BME280;6016;41.928;25.556;2023-03-04T02:18:52;99215.47;;;6.00;80.31
11912;BME280;6016;41.928;25.556;2023-03-04T02:21:22;99216.13;;;6.04;80.61
11912;BME280;6016;41.928;25.556;2023-03-04T02:23:56;99215.41;;;6.02;79.62
11912;BME280;6016;41.928;25.556;2023-03-04T02:26:28;99166.59;;;5.75;80.50
11912;BME280;6016;41.928;25.556;2023-03-04T02:28:57;99203.84;;;6.04;80.22
11912;BME280;6016;41.928;25.556;2023-03-04T02:31:26;99204.59;;;6.07;81.11
11912;BME280;6016;41.928;25.556;2023-03-04T02:33:57;99172.78;;;5.87;80.51
11912;BME280;6016;41.928;25.556;2023-03-04T02:36:25;99178.91;;;5.99;80.49
11912;BME280;6016;41.928;25.556;2023-03-04T02:38:52;99185.50;;;6.17;79.96
11912;BME280;6016;41.928;25.556;2023-03-04T02:41:23;99184.56;;;6.18;79.61
11912;BME280;6016;41.928;25.556;2023-03-04T02:43:53;99143.34;;;5.83;79.74
11912;BME280;6016;41.928;25.556;2023-03-04T02:46:20;99142.94;;;5.89;81.22
11912;BME280;6016;41.928;25.556;2023-03-04T02:48:48;99177.25;;;6.11;80.72
11912;BME280;6016;41.928;25.556;2023-03-04T02:51:15;99173.50;;;6.02;80.31
11912;BME280;6016;41.928;25.556;2023-03-04T02:53:42;99173.09;;;5.95;81.69
11912;BME280;6016;41.928;25.556;2023-03-04T02:56:08;99180.59;;;6.00;80.53
11912;BME280;6016;41.928;25.556;2023-03-04T02:58:35;99146.19;;;5.67;81.23
11912;BME280;6016;41.928;25.556;2023-03-04T03:01:04;99182.69;;;5.95;81.34
11912;BME280;6016;41.928;25.556;2023-03-04T03:03:31;99162.88;;;5.53;80.60
11912;BME280;6016;41.928;25.556;2023-03-04T03:05:58;99203.16;;;5.89;80.90
11912;BME280;6016;41.928;25.556;2023-03-04T03:08:25;99183.50;;;5.32;81.55
11912;BME280;6016;41.928;25.556;2023-03-04T03:10:51;99194.78;;;5.71;82.43
11912;BME280;6016;41.928;25.556;2023-03-04T03:13:18;99190.47;;;5.83;82.34
11912;BME280;6016;41.928;25.556;2023-03-04T03:15:45;99191.28;;;5.97;81.15
11912;BME280;6016;41.928;25.556;2023-03-04T03:18:13;99196.22;;;6.01;81.30
11912;BME280;6016;41.928;25.556;2023-03-04T03:20:40;99200.09;;;6.09;80.30
11912;BME280;6016;41.928;25.556;2023-03-04T03:23:07;99146.75;;;5.59;80.71
11912;BME280;6016;41.928;25.556;2023-03-04T03:25:34;99206.06;;;6.11;81.38
11912;BME280;6016;41.928;25.556;2023-03-04T03:28:01;99143.91;;;5.75;81.14
11912;BME280;6016;41.928;25.556;2023-03-04T03:30:28;99205.63;;;6.17;81.35
11912;BME280;6016;41.928;25.556;2023-03-04T03:32:55;99203.94;;;6.16;81.15
11912;BME280;6016;41.928;25.556;2023-03-04T03:35:23;99206.47;;;6.17;80.70
11912;BME280;6016;41.928;25.556;2023-03-04T03:37:50;99194.00;;;6.08;80.36
11912;BME280;6016;41.928;25.556;2023-03-04T03:40:17;99204.78;;;6.16;80.58
11912;BME280;6016;41.928;25.556;2023-03-04T03:42:44;99210.03;;;6.16;80.62
11912;BME280;6016;41.928;25.556;2023-03-04T03:45:11;99199.78;;;6.13;81.35
11912;BME280;6016;41.928;25.556;2023-03-04T03:47:38;99209.94;;;6.05;81.36
11912;BME280;6016;41.928;25.556;2023-03-04T03:50:05;99203.44;;;6.11;81.95
11912;BME280;6016;41.928;25.556;2023-03-04T03:52:34;99187.63;;;5.99;82.45
11912;BME280;6016;41.928;25.556;2023-03-04T03:55:00;99206.47;;;6.17;82.81
11912;BME280;6016;41.928;25.556;2023-03-04T03:57:28;99207.41;;;6.16;82.54
11912;BME280;6016;41.928;25.556;2023-03-04T03:59:55;99100.81;;;5.42;81.93
11912;BME280;6016;41.928;25.556;2023-03-04T04:02:22;99085.25;;;5.41;80.73
11912;BME280;6016;41.928;25.556;2023-03-04T04:04:49;99152.41;;;5.53;80.99
11912;BME280;6016;41.928;25.556;2023-03-04T04:07:16;99204.59;;;5.81;81.65
11912;BME280;6016;41.928;25.556;2023-03-04T04:09:44;99082.66;;;5.02;81.09
11912;BME280;6016;41.928;25.556;2023-03-04T04:12:13;99195.38;;;5.75;81.36
11912;BME280;6016;41.928;25.556;2023-03-04T04:14:41;99117.47;;;5.41;81.60
11912;BME280;6016;41.928;25.556;2023-03-04T04:17:08;99199.34;;;5.94;80.54
11912;BME280;6016;41.928;25.556;2023-03-04T04:19:35;99209.59;;;5.97;79.49
11912;BME280;6016;41.928;25.556;2023-03-04T04:22:02;99178.81;;;5.87;80.03
11912;BME280;6016;41.928;25.556;2023-03-04T04:24:29;99196.94;;;6.03;80.19
11912;BME280;6016;41.928;25.556;2023-03-04T04:26:57;99162.53;;;5.84;80.58
11912;BME280;6016;41.928;25.556;2023-03-04T04:29:24;99200.41;;;6.04;80.59
11912;BME280;6016;41.928;25.556;2023-03-04T04:31:51;99201.97;;;6.07;80.27
11912;BME280;6016;41.928;25.556;2023-03-04T04:34:17;99190.13;;;6.01;79.70
11912;BME280;6016;41.928;25.556;2023-03-04T04:36:44;99056.63;;;5.13;80.45
11912;BME280;6016;41.928;25.556;2023-03-04T04:39:11;99205.94;;;5.99;79.17
11912;BME280;6016;41.928;25.556;2023-03-04T04:41:40;99202.09;;;6.05;79.07
11912;BME280;6016;41.928;25.556;2023-03-04T04:44:10;99203.66;;;6.08;80.05
11912;BME280;6016;41.928;25.556;2023-03-04T04:46:37;99200.50;;;6.02;79.40
11912;BME280;6016;41.928;25.556;2023-03-04T04:49:05;99200.28;;;6.05;80.01
11912;BME280;6016;41.928;25.556;2023-03-04T04:51:32;99201.97;;;6.07;79.88
11912;BME280;6016;41.928;25.556;2023-03-04T04:54:00;99203.84;;;6.04;80.26
11912;BME280;6016;41.928;25.556;2023-03-04T04:56:27;99160.94;;;5.81;79.70
11912;BME280;6016;41.928;25.556;2023-03-04T04:58:56;99190.91;;;6.03;80.11
11912;BME280;6016;41.928;25.556;2023-03-04T05:01:25;99199.47;;;6.05;79.63
11912;BME280;6016;41.928;25.556;2023-03-04T05:03:52;99122.47;;;5.57;80.36
11912;BME280;6016;41.928;25.556;2023-03-04T05:06:20;99177.06;;;5.88;80.62
11912;BME280;6016;41.928;25.556;2023-03-04T05:08:48;99161.91;;;5.67;80.12
11912;BME280;6016;41.928;25.556;2023-03-04T05:11:15;99198.00;;;5.88;80.96
11912;BME280;6016;41.928;25.556;2023-03-04T05:13:43;99164.44;;;5.69;80.25
11912;BME280;6016;41.928;25.556;2023-03-04T05:16:10;99204.94;;;5.63;79.96
11912;BME280;6016;41.928;25.556;2023-03-04T05:18:39;99213.31;;;5.81;80.82
11912;BME280;6016;41.928;25.556;2023-03-04T05:21:06;99209.41;;;5.87;80.21
11912;BME280;6016;41.928;25.556;2023-03-04T05:23:34;99202.38;;;5.87;80.52
11912;BME280;6016;41.928;25.556;2023-03-04T05:26:01;99187.03;;;5.70;80.89
11912;BME280;6016;41.928;25.556;2023-03-04T05:28:28;99119.38;;;5.26;80.70
11912;BME280;6016;41.928;25.556;2023-03-04T05:30:55;99199.69;;;6.02;80.42
11912;BME280;6016;41.928;25.556;2023-03-04T05:33:22;99169.53;;;5.83;80.83
11912;BME280;6016;41.928;25.556;2023-03-04T05:35:50;99212.78;;;6.02;79.43
11912;BME280;6016;41.928;25.556;2023-03-04T05:38:18;99213.50;;;5.91;80.39
11912;BME280;6016;41.928;25.556;2023-03-04T05:40:46;99140.28;;;5.52;80.40
11912;BME280;6016;41.928;25.556;2023-03-04T05:43:13;99213.69;;;6.01;81.45
11912;BME280;6016;41.928;25.556;2023-03-04T05:45:40;99212.34;;;6.08;81.02
11912;BME280;6016;41.928;25.556;2023-03-04T05:48:08;99203.00;;;6.17;80.41
11912;BME280;6016;41.928;25.556;2023-03-04T05:50:34;99210.31;;;6.25;80.13
11912;BME280;6016;41.928;25.556;2023-03-04T05:53:03;99178.19;;;6.10;80.20
11912;BME280;6016;41.928;25.556;2023-03-04T05:55:29;99166.88;;;6.09;79.59
11912;BME280;6016;41.928;25.556;2023-03-04T05:57:56;99193.31;;;6.30;79.71
11912;BME280;6016;41.928;25.556;2023-03-04T06:00:24;99218.53;;;6.44;79.28
11912;BME280;6016;41.928;25.556;2023-03-04T06:02:51;99075.50;;;5.43;79.84
11912;BME280;6016;41.928;25.556;2023-03-04T06:05:18;99226.72;;;6.40;80.54
11912;BME280;6016;41.928;25.556;2023-03-04T06:07:45;99231.19;;;6.51;80.44
11912;BME280;6016;41.928;25.556;2023-03-04T06:10:15;99222.56;;;6.61;80.80
11912;BME280;6016;41.928;25.556;2023-03-04T06:12:42;99202.03;;;6.55;81.69
11912;BME280;6016;41.928;25.556;2023-03-04T06:15:10;99138.25;;;6.19;80.22
11912;BME280;6016;41.928;25.556;2023-03-04T06:17:37;99225.09;;;6.74;80.15
11912;BME280;6016;41.928;25.556;2023-03-04T06:20:05;99219.09;;;6.61;79.95
11912;BME280;6016;41.928;25.556;2023-03-04T06:22:33;99213.28;;;6.69;79.98
11912;BME280;6016;41.928;25.556;2023-03-04T06:25:00;99234.59;;;6.88;79.01
11912;BME280;6016;41.928;25.556;2023-03-04T06:27:29;99182.13;;;6.53;79.24
11912;BME280;6016;41.928;25.556;2023-03-04T06:29:55;99238.31;;;6.97;79.13
11912;BME280;6016;41.928;25.556;2023-03-04T06:32:22;99218.47;;;6.82;78.45
11912;BME280;6016;41.928;25.556;2023-03-04T06:34:49;99237.03;;;7.03;78.70
11912;BME280;6016;41.928;25.556;2023-03-04T06:37:16;99241.41;;;6.91;78.02
11912;BME280;6016;41.928;25.556;2023-03-04T06:39:43;99197.53;;;6.57;79.01
11912;BME280;6016;41.928;25.556;2023-03-04T06:42:10;99204.16;;;6.50;79.59
11912;BME280;6016;41.928;25.556;2023-03-04T06:44:38;99246.84;;;6.88;79.75
11912;BME280;6016;41.928;25.556;2023-03-04T06:47:05;99253.25;;;6.97;80.14
11912;BME280;6016;41.928;25.556;2023-03-04T06:49:32;99251.19;;;7.00;79.73
11912;BME280;6016;41.928;25.556;2023-03-04T06:51:59;99202.47;;;6.49;80.40
11912;BME280;6016;41.928;25.556;2023-03-04T06:54:25;99255.19;;;7.17;80.74
11912;BME280;6016;41.928;25.556;2023-03-04T06:56:52;99252.28;;;7.34;80.65
11912;BME280;6016;41.928;25.556;2023-03-04T06:59:19;99258.47;;;7.32;79.62
11912;BME280;6016;41.928;25.556;2023-03-04T07:01:47;99251.84;;;7.40;80.23
11912;BME280;6016;41.928;25.556;2023-03-04T07:04:14;99248.59;;;7.36;80.66
11912;BME280;6016;41.928;25.556;2023-03-04T07:06:41;99204.50;;;7.06;80.54
11912;BME280;6016;41.928;25.556;2023-03-04T07:09:07;99251.47;;;7.44;82.14
11912;BME280;6016;41.928;25.556;2023-03-04T07:11:34;99248.84;;;7.56;81.68
11912;BME280;6016;41.928;25.556;2023-03-04T07:14:01;99255.44;;;7.62;82.10
11912;BME280;6016;41.928;25.556;2023-03-04T07:16:28;99254.13;;;7.67;81.00
11912;BME280;6016;41.928;25.556;2023-03-04T07:18:56;99251.97;;;7.50;81.44
11912;BME280;6016;41.928;25.556;2023-03-04T07:21:24;99236.81;;;7.42;81.87
11912;BME280;6016;41.928;25.556;2023-03-04T07:23:51;99255.88;;;7.44;81.27
11912;BME280;6016;41.928;25.556;2023-03-04T07:26:18;99260.19;;;7.45;82.34
11912;BME280;6016;41.928;25.556;2023-03-04T07:28:44;99259.16;;;7.59;83.50
11912;BME280;6016;41.928;25.556;2023-03-04T07:31:13;99261.41;;;7.64;82.30
11912;BME280;6016;41.928;25.556;2023-03-04T07:33:45;99256.88;;;7.77;82.83
11912;BME280;6016;41.928;25.556;2023-03-04T07:36:13;99223.59;;;7.66;82.08
11912;BME280;6016;41.928;25.556;2023-03-04T07:38:42;99251.44;;;7.92;82.23
11912;BME280;6016;41.928;25.556;2023-03-04T07:41:09;99241.38;;;7.97;83.00
11912;BME280;6016;41.928;25.556;2023-03-04T07:43:36;99243.19;;;7.96;82.78
11912;BME280;6016;41.928;25.556;2023-03-04T07:46:03;99232.31;;;7.67;82.36
11912;BME280;6016;41.928;25.556;2023-03-04T07:48:30;99178.34;;;7.63;82.01
11912;BME280;6016;41.928;25.556;2023-03-04T07:51:05;99235.19;;;8.09;82.30
11912;BME280;6016;41.928;25.556;2023-03-04T07:53:34;99225.88;;;8.16;82.16
11912;BME280;6016;41.928;25.556;2023-03-04T07:56:01;99236.94;;;8.31;81.76
11912;BME280;6016;41.928;25.556;2023-03-04T07:58:28;99227.84;;;8.47;82.24
11912;BME280;6016;41.928;25.556;2023-03-04T08:00:55;99236.06;;;8.65;82.30
11912;BME280;6016;41.928;25.556;2023-03-04T08:03:22;99232.22;;;8.81;81.00
11912;BME280;6016;41.928;25.556;2023-03-04T08:05:49;99196.75;;;8.64;80.62
11912;BME280;6016;41.928;25.556;2023-03-04T08:08:15;99223.00;;;9.08;81.08
11912;BME280;6016;41.928;25.556;2023-03-04T08:10:44;99238.09;;;9.48;80.35
11912;BME280;6016;41.928;25.556;2023-03-04T08:13:11;99241.78;;;9.67;79.12
11912;BME280;6016;41.928;25.556;2023-03-04T08:15:40;99238.25;;;9.78;78.83
11912;BME280;6016;41.928;25.556;2023-03-04T08:18:07;99238.56;;;9.84;78.15
11912;BME280;6016;41.928;25.556;2023-03-04T08:20:34;99249.53;;;9.90;78.07
11912;BME280;6016;41.928;25.556;2023-03-04T08:23:01;99236.63;;;9.87;77.94
11912;BME280;6016;41.928;25.556;2023-03-04T08:25:28;99251.19;;;9.91;77.78
11912;BME280;6016;41.928;25.556;2023-03-04T08:27:56;99253.09;;;10.10;77.15
11912;BME280;6016;41.928;25.556;2023-03-04T08:30:23;99252.50;;;11.08;77.90
11912;BME280;6016;41.928;25.556;2023-03-04T08:32:50;99239.94;;;12.53;72.28
11912;BME280;6016;41.928;25.556;2023-03-04T08:35:17;99250.06;;;13.67;66.64
11912;BME280;6016;41.928;25.556;2023-03-04T08:37:43;99247.34;;;14.19;62.61
11912;BME280;6016;41.928;25.556;2023-03-04T08:40:12;99215.88;;;14.33;61.47
11912;BME280;6016;41.928;25.556;2023-03-04T08:42:39;99230.81;;;14.34;62.19
11912;BME280;6016;41.928;25.556;2023-03-04T08:45:09;99208.50;;;14.10;62.91
11912;BME280;6016;41.928;25.556;2023-03-04T08:47:36;99236.97;;;14.43;62.19
11912;BME280;6016;41.928;25.556;2023-03-04T08:50:04;99225.75;;;14.66;61.92
11912;BME280;6016;41.928;25.556;2023-03-04T08:52:31;99224.47;;;14.95;60.27
11912;BME280;6016;41.928;25.556;2023-03-04T08:54:59;99219.34;;;15.18;59.86
11912;BME280;6016;41.928;25.556;2023-03-04T08:57:26;99223.00;;;15.17;59.14
11912;BME280;6016;41.928;25.556;2023-03-04T08:59:53;99222.63;;;14.70;60.15
11912;BME280;6016;41.928;25.556;2023-03-04T09:02:21;99225.47;;;14.77;60.27
11912;BME280;6016;41.928;25.556;2023-03-04T09:04:48;99217.84;;;14.74;61.27
11912;BME280;6016;41.928;25.556;2023-03-04T09:07:15;99217.31;;;14.70;62.54
11912;BME280;6016;41.928;25.556;2023-03-04T09:09:41;99219.72;;;14.39;60.94
11912;BME280;6016;41.928;25.556;2023-03-04T09:12:08;99174.91;;;13.84;62.19
11912;BME280;6016;41.928;25.556;2023-03-04T09:14:35;99208.41;;;13.85;63.50
11912;BME280;6016;41.928;25.556;2023-03-04T09:17:04;99157.91;;;13.34;63.82
11912;BME280;6016;41.928;25.556;2023-03-04T09:19:32;99180.28;;;13.13;64.42
11912;BME280;6016;41.928;25.556;2023-03-04T09:21:59;99205.31;;;13.19;64.34
11912;BME280;6016;41.928;25.556;2023-03-04T09:24:26;99203.91;;;13.51;65.54
11912;BME280;6016;41.928;25.556;2023-03-04T09:26:53;99202.09;;;13.86;64.92
11912;BME280;6016;41.928;25.556;2023-03-04T09:29:21;99200.81;;;13.90;62.23
11912;BME280;6016;41.928;25.556;2023-03-04T09:31:48;99201.72;;;14.16;63.58
11912;BME280;6016;41.928;25.556;2023-03-04T09:34:16;99186.81;;;14.83;65.48
11912;BME280;6016;41.928;25.556;2023-03-04T09:36:44;99178.91;;;15.64;62.71
11912;BME280;6016;41.928;25.556;2023-03-04T09:39:11;99172.44;;;15.58;59.55
11912;BME280;6016;41.928;25.556;2023-03-04T09:41:39;99155.09;;;14.98;58.71
11912;BME280;6016;41.928;25.556;2023-03-04T09:44:14;99163.19;;;14.71;59.68
11912;BME280;6016;41.928;25.556;2023-03-04T09:46:43;99162.19;;;14.56;59.87
11912;BME280;6016;41.928;25.556;2023-03-04T09:49:12;99167.94;;;14.34;61.33
11912;BME280;6016;41.928;25.556;2023-03-04T09:51:46;99161.41;;;14.04;59.64
11912;BME280;6016;41.928;25.556;2023-03-04T09:54:19;99109.84;;;13.55;60.18
11912;BME280;6016;41.928;25.556;2023-03-04T09:56:51;99160.63;;;13.77;62.56
11912;BME280;6016;41.928;25.556;2023-03-04T09:59:24;99158.97;;;13.76;64.48
11912;BME280;6016;41.928;25.556;2023-03-04T10:01:54;99154.13;;;13.71;63.94
11912;BME280;6016;41.928;25.556;2023-03-04T10:04:29;99155.97;;;13.71;64.18
11912;BME280;6016;41.928;25.556;2023-03-04T10:07:00;99156.56;;;13.91;63.64
11912;BME280;6016;41.928;25.556;2023-03-04T10:09:31;99133.56;;;14.08;61.56
11912;BME280;6016;41.928;25.556;2023-03-04T10:12:05;99150.91;;;14.45;58.70
11912;BME280;6016;41.928;25.556;2023-03-04T10:14:36;99137.84;;;14.77;58.12
11912;BME280;6016;41.928;25.556;2023-03-04T10:17:09;99135.84;;;14.87;57.68
11912;BME280;6016;41.928;25.556;2023-03-04T10:19:51;99078.88;;;14.40;58.73
11912;BME280;6016;41.928;25.556;2023-03-04T10:22:25;99106.91;;;14.18;58.49
11912;BME280;6016;41.928;25.556;2023-03-04T10:24:55;99122.31;;;14.23;60.27
11912;BME280;6016;41.928;25.556;2023-03-04T10:27:23;99115.28;;;13.88;60.22
11912;BME280;6016;41.928;25.556;2023-03-04T10:29:50;99117.16;;;14.04;61.26
11912;BME280;6016;41.928;25.556;2023-03-04T10:32:18;99073.88;;;14.12;58.55
11912;BME280;6016;41.928;25.556;2023-03-04T10:34:45;99112.09;;;14.61;58.34
11912;BME280;6016;41.928;25.556;2023-03-04T10:37:12;99112.59;;;14.81;58.58
11912;BME280;6016;41.928;25.556;2023-03-04T10:39:43;99092.69;;;14.77;56.80
11912;BME280;6016;41.928;25.556;2023-03-04T10:42:27;99099.13;;;14.66;58.03
11912;BME280;6016;41.928;25.556;2023-03-04T10:44:58;99101.44;;;14.36;59.08
11912;BME280;6016;41.928;25.556;2023-03-04T10:47:27;99088.47;;;14.08;59.05
11912;BME280;6016;41.928;25.556;2023-03-04T10:49:55;99095.72;;;13.81;60.19
11912;BME280;6016;41.928;25.556;2023-03-04T10:52:27;99073.28;;;13.67;63.13
11912;BME280;6016;41.928;25.556;2023-03-04T10:54:57;99089.47;;;13.56;64.07
11912;BME280;6016;41.928;25.556;2023-03-04T10:57:32;99099.63;;;13.34;63.60
11912;BME280;6016;41.928;25.556;2023-03-04T11:00:00;99062.75;;;13.14;62.93
11912;BME280;6016;41.928;25.556;2023-03-04T11:02:28;99078.00;;;13.20;62.49
11912;BME280;6016;41.928;25.556;2023-03-04T11:05:04;99073.47;;;13.04;63.85
11912;BME280;6016;41.928;25.556;2023-03-04T11:07:34;99049.78;;;12.76;64.46
11912;BME280;6016;41.928;25.556;2023-03-04T11:10:14;99065.56;;;12.86;66.06
11912;BME280;6016;41.928;25.556;2023-03-04T11:12:47;99049.78;;;12.76;69.58
11912;BME280;6016;41.928;25.556;2023-03-04T11:15:20;99045.47;;;12.75;67.56
11912;BME280;6016;41.928;25.556;2023-03-04T11:17:51;99026.38;;;12.63;67.43
11912;BME280;6016;41.928;25.556;2023-03-04T11:20:27;98990.75;;;12.31;66.95
11912;BME280;6016;41.928;25.556;2023-03-04T11:22:56;99038.72;;;12.55;67.84
11912;BME280;6016;41.928;25.556;2023-03-04T11:25:30;99033.69;;;12.25;69.70
11912;BME280;6016;41.928;25.556;2023-03-04T11:28:01;99034.34;;;12.45;67.68
11912;BME280;6016;41.928;25.556;2023-03-04T11:30:35;99041.19;;;12.56;67.58
11912;BME280;6016;41.928;25.556;2023-03-04T11:33:11;99011.28;;;12.56;66.58
11912;BME280;6016;41.928;25.556;2023-03-04T11:35:44;98987.28;;;12.84;68.15
11912;BME280;6016;41.928;25.556;2023-03-04T11:38:16;98970.59;;;13.26;68.72
11912;BME280;6016;41.928;25.556;2023-03-04T11:40:49;99019.53;;;14.08;67.09
11912;BME280;6016;41.928;25.556;2023-03-04T11:43:22;99010.06;;;14.39;65.31
11912;BME280;6016;41.928;25.556;2023-03-04T11:46:00;99008.75;;;14.76;61.98
11912;BME280;6016;41.928;25.556;2023-03-04T11:48:41;98767.63;;;13.25;61.52
11912;BME280;6016;41.928;25.556;2023-03-04T11:51:19;99010.72;;;14.32;63.13
11912;BME280;6016;41.928;25.556;2023-03-04T11:56:41;99004.59;;;14.32;62.91
11912;BME280;6016;41.928;25.556;2023-03-04T12:02:14;98988.69;;;14.24;61.59
11912;BME280;6016;41.928;25.556;2023-03-04T12:05:14;98995.00;;;14.31;59.93
11912;BME280;6016;41.928;25.556;2023-03-04T12:08:21;98991.81;;;14.77;60.93
11912;BME280;6016;41.928;25.556;2023-03-04T12:10:58;98955.13;;;14.72;59.01
11912;BME280;6016;41.928;25.556;2023-03-04T12:16:51;98982.03;;;15.57;59.46
11912;BME280;6016;41.928;25.556;2023-03-04T12:19:28;98977.22;;;15.21;61.48
11912;BME280;6016;41.928;25.556;2023-03-04T12:22:12;98976.22;;;15.14;59.06
11912;BME280;6016;41.928;25.556;2023-03-04T12:27:38;98923.19;;;14.24;59.01
11912;BME280;6016;41.928;25.556;2023-03-04T12:30:16;98914.25;;;14.09;58.67
11912;BME280;6016;41.928;25.556;2023-03-04T12:32:51;98915.91;;;14.18;60.46
11912;BME280;6016;41.928;25.556;2023-03-04T12:35:32;98976.22;;;14.41;59.89
11912;BME280;6016;41.928;25.556;2023-03-04T12:38:19;98971.75;;;14.25;59.42
11912;BME280;6016;41.928;25.556;2023-03-04T12:40:52;98972.75;;;14.24;60.97
11912;BME280;6016;41.928;25.556;2023-03-04T12:43:30;98901.84;;;13.84;60.55
11912;BME280;6016;41.928;25.556;2023-03-04T12:46:06;98964.97;;;14.30;60.35
11912;BME280;6016;41.928;25.556;2023-03-04T12:48:40;98962.31;;;14.39;60.98
11912;BME280;6016;41.928;25.556;2023-03-04T12:51:22;98857.75;;;13.83;60.83
11912;BME280;6016;41.928;25.556;2023-03-04T12:54:03;98958.81;;;14.38;60.93
11912;BME280;6016;41.928;25.556;2023-03-04T12:56:38;98963.81;;;14.16;60.70
11912;BME280;6016;41.928;25.556;2023-03-04T12:59:13;98957.84;;;14.14;62.63
11912;BME280;6016;41.928;25.556;2023-03-04T13:01:44;98919.06;;;13.80;64.22
11912;BME280;6016;41.928;25.556;2023-03-04T13:04:18;98945.06;;;13.93;61.71
11912;BME280;6016;41.928;25.556;2023-03-04T13:06:55;98938.63;;;13.79;63.92
11912;BME280;6016;41.928;25.556;2023-03-04T13:09:30;98932.16;;;13.73;62.77
11912;BME280;6016;41.928;25.556;2023-03-04T13:12:03;98933.81;;;13.74;62.69
11912;BME280;6016;41.928;25.556;2023-03-04T13:14:32;98918.38;;;13.61;62.52
11912;BME280;6016;41.928;25.556;2023-03-04T13:17:05;98930.97;;;13.76;63.36
11912;BME280;6016;41.928;25.556;2023-03-04T13:19:50;98893.47;;;13.29;65.73
11912;BME280;6016;41.928;25.556;2023-03-04T13:22:52;98925.16;;;13.56;63.48
11912;BME280;6016;41.928;25.556;2023-03-04T13:25:40;98924.16;;;13.57;64.70
11912;BME280;6016;41.928;25.556;2023-03-04T13:28:17;98917.06;;;13.57;64.92
11912;BME280;6016;41.928;25.556;2023-03-04T13:31:12;98911.41;;;13.52;62.53